sensor_id;sensor_type;location;lat;lon;timestamp;pressure;altitude;pressure_sealevel;temperature;humidity
63946;BME280;50122;56.330;43.838;2022-12-05T00:01:33;104180.72;;;-17.94;77.71
63946;BME280;50122;56.330;43.838;2022-12-05T00:04:06;104167.50;;;-17.98;77.60
63946;BME280;50122;56.330;43.838;2022-12-05T00:06:35;104172.03;;;-17.96;77.57
63946;BME280;50122;56.330;43.838;2022-12-05T00:09:03;104167.38;;;-18.06;77.50
63946;BME280;50122;56.330;43.838;2022-12-05T00:11:31;104170.22;;;-17.97;77.70
63946;BME280;50122;56.330;43.838;2022-12-05T00:14:01;104181.00;;;-17.98;77.35
63946;BME280;50122;56.330;43.838;2022-12-05T00:16:30;104177.59;;;-17.98;77.76
63946;BME280;50122;56.330;43.838;2022-12-05T00:19:01;104165.97;;;-18.04;77.44
63946;BME280;50122;56.330;43.838;2022-12-05T00:21:31;104160.50;;;-18.07;77.52
63946;BME280;50122;56.330;43.838;2022-12-05T00:23:58;104168.19;;;-17.99;77.37
63946;BME280;50122;56.330;43.838;2022-12-05T00:26:26;104139.06;;;-18.16;77.21
63946;BME280;50122;56.330;43.838;2022-12-05T00:28:53;104166.69;;;-18.05;76.66
63946;BME280;50122;56.330;43.838;2022-12-05T00:31:22;104158.06;;;-17.99;77.67
63946;BME280;50122;56.330;43.838;2022-12-05T00:33:50;104137.97;;;-18.05;77.60
63946;BME280;50122;56.330;43.838;2022-12-05T00:36:23;104167.41;;;-17.93;77.71
63946;BME280;50122;56.330;43.838;2022-12-05T00:38:52;104163.03;;;-17.94;77.48
63946;BME280;50122;56.330;43.838;2022-12-05T00:41:24;104169.03;;;-17.93;77.89
63946;BME280;50122;56.330;43.838;2022-12-05T00:43:51;104164.66;;;-17.94;77.08
63946;BME280;50122;56.330;43.838;2022-12-05T00:46:21;104178.59;;;-17.91;77.23
63946;BME280;50122;56.330;43.838;2022-12-05T00:48:49;104151.94;;;-18.02;77.49
63946;BME280;50122;56.330;43.838;2022-12-05T00:51:26;104166.50;;;-17.93;77.53
63946;BME280;50122;56.330;43.838;2022-12-05T00:53:56;104170.13;;;-17.91;77.91
63946;BME280;50122;56.330;43.838;2022-12-05T00:56:24;104161.75;;;-17.97;77.43
63946;BME280;50122;56.330;43.838;2022-12-05T00:58:53;104172.25;;;-17.94;77.44
63946;BME280;50122;56.330;43.838;2022-12-05T01:01:28;104167.19;;;-17.94;76.62
63946;BME280;50122;56.330;43.838;2022-12-05T01:04:00;104172.94;;;-17.95;77.10
63946;BME280;50122;56.330;43.838;2022-12-05T01:06:27;104153.03;;;-17.99;77.17
63946;BME280;50122;56.330;43.838;2022-12-05T01:08:55;104163.34;;;-17.98;77.68
63946;BME280;50122;56.330;43.838;2022-12-05T01:11:24;104154.38;;;-17.96;77.87
63946;BME280;50122;56.330;43.838;2022-12-05T01:13:52;104149.50;;;-17.94;78.21
63946;BME280;50122;56.330;43.838;2022-12-05T01:16:23;104141.25;;;-17.93;77.71
63946;BME280;50122;56.330;43.838;2022-12-05T01:18:50;104150.63;;;-17.92;77.78
63946;BME280;50122;56.330;43.838;2022-12-05T01:21:18;104139.59;;;-17.93;77.85
63946;BME280;50122;56.330;43.838;2022-12-05T01:23:45;104137.56;;;-17.95;77.84
63946;BME280;50122;56.330;43.838;2022-12-05T01:26:14;104134.66;;;-17.98;77.92
63946;BME280;50122;56.330;43.838;2022-12-05T01:28:42;104138.41;;;-18.02;77.09
63946;BME280;50122;56.330;43.838;2022-12-05T01:31:17;104154.25;;;-18.03;76.72
63946;BME280;50122;56.330;43.838;2022-12-05T01:33:47;104145.34;;;-18.07;77.38
63946;BME280;50122;56.330;43.838;2022-12-05T01:36:14;104151.94;;;-18.02;77.96
63946;BME280;50122;56.330;43.838;2022-12-05T01:38:41;104144.16;;;-18.03;77.43
63946;BME280;50122;56.330;43.838;2022-12-05T01:41:13;104141.81;;;-18.02;77.16
63946;BME280;50122;56.330;43.838;2022-12-05T01:46:27;104136.56;;;-18.03;77.25
63946;BME280;50122;56.330;43.838;2022-12-05T01:49:01;104125.00;;;-18.14;78.22
63946;BME280;50122;56.330;43.838;2022-12-05T01:51:31;104128.38;;;-18.08;77.29
63946;BME280;50122;56.330;43.838;2022-12-05T01:54:00;104127.53;;;-18.14;77.70
63946;BME280;50122;56.330;43.838;2022-12-05T01:56:27;104133.03;;;-18.11;77.57
63946;BME280;50122;56.330;43.838;2022-12-05T01:58:56;104132.59;;;-18.14;76.83
63946;BME280;50122;56.330;43.838;2022-12-05T02:01:22;104133.63;;;-18.19;76.59
63946;BME280;50122;56.330;43.838;2022-12-05T02:03:51;104128.84;;;-18.23;76.46
63946;BME280;50122;56.330;43.838;2022-12-05T02:06:20;104114.69;;;-18.28;76.63
63946;BME280;50122;56.330;43.838;2022-12-05T02:08:48;104126.31;;;-18.23;77.42
63946;BME280;50122;56.330;43.838;2022-12-05T02:11:15;104125.00;;;-18.27;76.81
63946;BME280;50122;56.330;43.838;2022-12-05T02:13:53;104108.53;;;-18.30;76.93
63946;BME280;50122;56.330;43.838;2022-12-05T02:27:31;104105.19;;;-18.37;76.70
63946;BME280;50122;56.330;43.838;2022-12-05T02:35:33;104094.16;;;-18.37;76.96
63946;BME280;50122;56.330;43.838;2022-12-05T02:38:25;104090.13;;;-18.42;76.78
63946;BME280;50122;56.330;43.838;2022-12-05T02:44:13;104095.78;;;-18.38;77.11
63946;BME280;50122;56.330;43.838;2022-12-05T02:46:44;104092.88;;;-18.41;76.88
63946;BME280;50122;56.330;43.838;2022-12-05T02:49:17;104089.41;;;-18.41;77.14
63946;BME280;50122;56.330;43.838;2022-12-05T02:51:49;104092.88;;;-18.41;76.83
63946;BME280;50122;56.330;43.838;2022-12-05T02:54:38;104086.88;;;-18.41;76.77
63946;BME280;50122;56.330;43.838;2022-12-05T02:57:07;104080.53;;;-18.45;76.58
63946;BME280;50122;56.330;43.838;2022-12-05T02:59:39;104091.94;;;-18.41;76.67
63946;BME280;50122;56.330;43.838;2022-12-05T03:02:22;104083.06;;;-18.45;76.77
63946;BME280;50122;56.330;43.838;2022-12-05T03:04:49;104082.84;;;-18.46;76.66
63946;BME280;50122;56.330;43.838;2022-12-05T03:07:18;104100.72;;;-18.45;76.79
63946;BME280;50122;56.330;43.838;2022-12-05T03:09:55;104081.75;;;-18.48;76.34
63946;BME280;50122;56.330;43.838;2022-12-05T03:12:28;104076.47;;;-18.50;76.54
63946;BME280;50122;56.330;43.838;2022-12-05T03:15:07;104075.78;;;-18.49;76.71
63946;BME280;50122;56.330;43.838;2022-12-05T03:17:57;104072.75;;;-18.46;76.68
63946;BME280;50122;56.330;43.838;2022-12-05T03:20:36;104068.69;;;-18.51;75.97
63946;BME280;50122;56.330;43.838;2022-12-05T03:23:15;104073.66;;;-18.46;76.96
63946;BME280;50122;56.330;43.838;2022-12-05T03:25:56;104067.31;;;-18.49;76.80
63946;BME280;50122;56.330;43.838;2022-12-05T03:28:34;104070.94;;;-18.47;76.58
63946;BME280;50122;56.330;43.838;2022-12-05T03:31:08;104067.09;;;-18.51;76.96
63946;BME280;50122;56.330;43.838;2022-12-05T03:33:42;104053.56;;;-18.51;77.13
63946;BME280;50122;56.330;43.838;2022-12-05T03:36:22;104059.53;;;-18.51;76.57
63946;BME280;50122;56.330;43.838;2022-12-05T03:39:17;104052.94;;;-18.56;77.18
63946;BME280;50122;56.330;43.838;2022-12-05T03:44:33;104051.47;;;-18.48;76.98
63946;BME280;50122;56.330;43.838;2022-12-05T03:47:16;104033.88;;;-18.54;76.83
63946;BME280;50122;56.330;43.838;2022-12-05T03:49:50;104045.50;;;-18.49;76.77
63946;BME280;50122;56.330;43.838;2022-12-05T03:56:17;104040.31;;;-18.56;76.49
63946;BME280;50122;56.330;43.838;2022-12-05T03:58:56;104028.72;;;-18.61;76.71
63946;BME280;50122;56.330;43.838;2022-12-05T04:01:27;104020.00;;;-18.76;75.99
63946;BME280;50122;56.330;43.838;2022-12-05T04:03:58;104023.84;;;-18.73;76.43
63946;BME280;50122;56.330;43.838;2022-12-05T04:06:30;104016.44;;;-18.84;76.15
63946;BME280;50122;56.330;43.838;2022-12-05T04:09:02;104040.38;;;-18.75;76.97
63946;BME280;50122;56.330;43.838;2022-12-05T04:11:33;104029.47;;;-18.81;76.19
63946;BME280;50122;56.330;43.838;2022-12-05T17:18:44;103300.78;;;-15.42;83.89
63946;BME280;50122;56.330;43.838;2022-12-05T17:21:14;103278.28;;;-15.39;84.68
63946;BME280;50122;56.330;43.838;2022-12-05T17:23:43;103293.78;;;-15.28;84.06
63946;BME280;50122;56.330;43.838;2022-12-05T17:26:19;103288.47;;;-15.23;85.53
63946;BME280;50122;56.330;43.838;2022-12-05T17:28:47;103272.53;;;-15.22;85.36
63946;BME280;50122;56.330;43.838;2022-12-05T17:31:16;103280.00;;;-15.07;85.77
63946;BME280;50122;56.330;43.838;2022-12-05T17:33:44;103260.50;;;-15.15;85.88
63946;BME280;50122;56.330;43.838;2022-12-05T17:36:14;103260.91;;;-15.04;86.10
63946;BME280;50122;56.330;43.838;2022-12-05T17:38:42;103277.94;;;-14.87;86.53
63946;BME280;50122;56.330;43.838;2022-12-05T17:41:16;103248.47;;;-14.93;86.67
63946;BME280;50122;56.330;43.838;2022-12-05T17:43:49;103269.13;;;-14.74;87.44
63946;BME280;50122;56.330;43.838;2022-12-05T17:46:28;103266.13;;;-14.70;87.17
63946;BME280;50122;56.330;43.838;2022-12-05T17:48:55;103248.13;;;-14.80;87.29
63946;BME280;50122;56.330;43.838;2022-12-05T17:51:23;103257.16;;;-14.75;86.99
63946;BME280;50122;56.330;43.838;2022-12-05T17:54:25;103253.03;;;-14.66;87.53
63946;BME280;50122;56.330;43.838;2022-12-05T17:57:20;103255.28;;;-14.60;87.16
63946;BME280;50122;56.330;43.838;2022-12-05T17:59:47;103248.91;;;-14.57;86.97
63946;BME280;50122;56.330;43.838;2022-12-05T18:02:14;103251.03;;;-14.53;87.45
63946;BME280;50122;56.330;43.838;2022-12-05T18:04:46;103238.34;;;-14.53;87.68
63946;BME280;50122;56.330;43.838;2022-12-05T18:07:12;103247.91;;;-14.50;86.70
63946;BME280;50122;56.330;43.838;2022-12-05T18:09:40;103226.53;;;-14.52;87.14
63946;BME280;50122;56.330;43.838;2022-12-05T18:12:17;103247.06;;;-14.42;86.77
63946;BME280;50122;56.330;43.838;2022-12-05T18:14:44;103243.81;;;-14.41;86.74
63946;BME280;50122;56.330;43.838;2022-12-05T18:17:12;103244.44;;;-14.35;87.75
63946;BME280;50122;56.330;43.838;2022-12-05T18:19:39;103244.16;;;-14.29;86.95
63946;BME280;50122;56.330;43.838;2022-12-05T18:22:06;103249.16;;;-14.22;87.22
63946;BME280;50122;56.330;43.838;2022-12-05T18:24:36;103248.91;;;-14.16;87.45
63946;BME280;50122;56.330;43.838;2022-12-05T18:27:03;103232.91;;;-14.15;87.28
63946;BME280;50122;56.330;43.838;2022-12-05T18:29:30;103231.56;;;-14.11;87.00
63946;BME280;50122;56.330;43.838;2022-12-05T18:31:57;103212.59;;;-14.15;87.47
63946;BME280;50122;56.330;43.838;2022-12-05T18:34:24;103235.41;;;-13.99;87.57
63946;BME280;50122;56.330;43.838;2022-12-05T18:36:51;103246.81;;;-13.87;87.08
63946;BME280;50122;56.330;43.838;2022-12-05T18:39:18;103233.81;;;-13.81;86.91
63946;BME280;50122;56.330;43.838;2022-12-05T18:41:44;103230.59;;;-13.71;87.14
63946;BME280;50122;56.330;43.838;2022-12-05T18:44:11;103230.19;;;-13.58;87.37
63946;BME280;50122;56.330;43.838;2022-12-05T18:46:38;103221.97;;;-13.56;86.91
63946;BME280;50122;56.330;43.838;2022-12-05T18:49:05;103219.31;;;-13.49;86.28
63946;BME280;50122;56.330;43.838;2022-12-05T18:51:34;103203.69;;;-13.60;85.29
63946;BME280;50122;56.330;43.838;2022-12-05T18:54:01;103203.25;;;-13.56;85.21
63946;BME280;50122;56.330;43.838;2022-12-05T18:56:34;103218.38;;;-13.49;85.03
63946;BME280;50122;56.330;43.838;2022-12-05T18:59:04;103202.50;;;-13.55;85.01
63946;BME280;50122;56.330;43.838;2022-12-05T19:01:33;103214.66;;;-13.53;84.28
63946;BME280;50122;56.330;43.838;2022-12-05T19:04:03;103208.78;;;-13.52;84.42
63946;BME280;50122;56.330;43.838;2022-12-05T19:06:31;103219.75;;;-13.53;83.88
63946;BME280;50122;56.330;43.838;2022-12-05T19:09:02;103213.00;;;-13.52;83.49
63946;BME280;50122;56.330;43.838;2022-12-05T19:11:29;103227.94;;;-13.55;83.33
63946;BME280;50122;56.330;43.838;2022-12-05T19:13:59;103230.03;;;-13.60;82.72
63946;BME280;50122;56.330;43.838;2022-12-05T19:16:30;103208.75;;;-13.69;82.74
63946;BME280;50122;56.330;43.838;2022-12-05T19:18:59;103224.16;;;-13.68;82.62
63946;BME280;50122;56.330;43.838;2022-12-05T19:21:28;103209.78;;;-13.76;82.58
63946;BME280;50122;56.330;43.838;2022-12-05T19:23:57;103211.91;;;-13.72;81.90
63946;BME280;50122;56.330;43.838;2022-12-05T19:26:25;103208.84;;;-13.76;82.54
63946;BME280;50122;56.330;43.838;2022-12-05T19:28:55;103195.56;;;-13.74;82.14
63946;BME280;50122;56.330;43.838;2022-12-05T19:31:26;103202.91;;;-13.68;82.60
63946;BME280;50122;56.330;43.838;2022-12-05T19:34:04;103202.75;;;-13.70;81.88
63946;BME280;50122;56.330;43.838;2022-12-05T19:36:49;103195.47;;;-13.58;82.73
63946;BME280;50122;56.330;43.838;2022-12-05T19:39:54;103170.75;;;-13.68;82.79
63946;BME280;50122;56.330;43.838;2022-12-05T19:42:21;103177.53;;;-13.51;82.45
63946;BME280;50122;56.330;43.838;2022-12-05T19:44:48;103182.78;;;-13.40;82.13
63946;BME280;50122;56.330;43.838;2022-12-05T19:47:14;103172.31;;;-13.43;81.93
63946;BME280;50122;56.330;43.838;2022-12-05T19:49:41;103177.25;;;-13.36;82.30
63946;BME280;50122;56.330;43.838;2022-12-05T19:52:08;103183.28;;;-13.36;81.93
63946;BME280;50122;56.330;43.838;2022-12-05T19:54:34;103180.25;;;-13.40;81.75
63946;BME280;50122;56.330;43.838;2022-12-05T19:57:01;103168.88;;;-13.44;82.26
63946;BME280;50122;56.330;43.838;2022-12-05T19:59:27;103165.13;;;-13.48;81.36
63946;BME280;50122;56.330;43.838;2022-12-05T20:01:54;103175.78;;;-13.43;81.64
63946;BME280;50122;56.330;43.838;2022-12-05T20:04:21;103174.41;;;-13.39;81.10
63946;BME280;50122;56.330;43.838;2022-12-05T20:06:48;103165.25;;;-13.46;81.23
63946;BME280;50122;56.330;43.838;2022-12-05T20:09:18;103173.97;;;-13.44;81.01
63946;BME280;50122;56.330;43.838;2022-12-05T20:11:46;103178.78;;;-13.38;80.94
63946;BME280;50122;56.330;43.838;2022-12-05T20:14:22;103177.53;;;-13.33;81.50
63946;BME280;50122;56.330;43.838;2022-12-05T20:16:51;103170.97;;;-13.31;81.28
63946;BME280;50122;56.330;43.838;2022-12-05T20:19:22;103173.38;;;-13.24;80.82
63946;BME280;50122;56.330;43.838;2022-12-05T20:21:49;103166.03;;;-13.30;81.22
63946;BME280;50122;56.330;43.838;2022-12-05T20:24:15;103172.44;;;-13.24;81.13
63946;BME280;50122;56.330;43.838;2022-12-05T20:26:43;103157.19;;;-13.33;80.68
63946;BME280;50122;56.330;43.838;2022-12-05T20:29:10;103178.44;;;-13.33;80.61
63946;BME280;50122;56.330;43.838;2022-12-05T20:31:39;103176.38;;;-13.37;80.60
63946;BME280;50122;56.330;43.838;2022-12-05T20:34:07;103179.50;;;-13.39;79.78
63946;BME280;50122;56.330;43.838;2022-12-05T20:36:35;103174.13;;;-13.42;80.33
63946;BME280;50122;56.330;43.838;2022-12-05T20:39:13;103173.53;;;-13.40;80.16
63946;BME280;50122;56.330;43.838;2022-12-05T20:41:40;103155.84;;;-13.47;79.94
63946;BME280;50122;56.330;43.838;2022-12-05T20:44:07;103166.34;;;-13.35;80.87
63946;BME280;50122;56.330;43.838;2022-12-05T20:46:34;103162.25;;;-13.33;80.53
63946;BME280;50122;56.330;43.838;2022-12-05T20:49:02;103148.53;;;-13.35;80.61
63946;BME280;50122;56.330;43.838;2022-12-05T20:51:31;103149.84;;;-13.30;80.46
63946;BME280;50122;56.330;43.838;2022-12-05T20:53:59;103152.72;;;-13.27;80.57
63946;BME280;50122;56.330;43.838;2022-12-05T20:56:29;103154.78;;;-13.23;80.67
63946;BME280;50122;56.330;43.838;2022-12-05T20:58:59;103141.75;;;-13.26;80.43
63946;BME280;50122;56.330;43.838;2022-12-05T21:01:28;103159.28;;;-13.20;80.03
63946;BME280;50122;56.330;43.838;2022-12-05T21:03:55;103157.03;;;-13.17;80.74
63946;BME280;50122;56.330;43.838;2022-12-05T21:08:50;103156.00;;;-13.11;80.35
63946;BME280;50122;56.330;43.838;2022-12-05T21:11:17;103153.47;;;-13.11;80.30
63946;BME280;50122;56.330;43.838;2022-12-05T21:13:45;103142.53;;;-13.27;79.22
63946;BME280;50122;56.330;43.838;2022-12-05T21:16:16;103148.22;;;-13.21;79.17
63946;BME280;50122;56.330;43.838;2022-12-05T21:18:43;103154.34;;;-13.28;79.12
63946;BME280;50122;56.330;43.838;2022-12-05T21:21:19;103134.94;;;-13.36;78.98
63946;BME280;50122;56.330;43.838;2022-12-05T21:23:51;103145.09;;;-13.36;79.48
63946;BME280;50122;56.330;43.838;2022-12-05T21:26:21;103136.69;;;-13.43;78.96
63946;BME280;50122;56.330;43.838;2022-12-05T21:28:48;103141.63;;;-13.45;79.64
63946;BME280;50122;56.330;43.838;2022-12-05T21:31:21;103120.97;;;-13.57;79.51
63946;BME280;50122;56.330;43.838;2022-12-05T21:33:50;103130.41;;;-13.56;79.42
63946;BME280;50122;56.330;43.838;2022-12-05T21:36:18;103141.47;;;-13.55;79.98
63946;BME280;50122;56.330;43.838;2022-12-05T21:38:45;103134.44;;;-13.58;79.41
63946;BME280;50122;56.330;43.838;2022-12-05T21:41:20;103131.56;;;-13.61;79.49
63946;BME280;50122;56.330;43.838;2022-12-05T21:43:47;103134.84;;;-13.62;79.71
63946;BME280;50122;56.330;43.838;2022-12-05T21:46:20;103124.53;;;-13.64;80.41
63946;BME280;50122;56.330;43.838;2022-12-05T21:48:47;103109.84;;;-13.66;79.78
63946;BME280;50122;56.330;43.838;2022-12-05T21:51:14;103128.44;;;-13.58;79.79
63946;BME280;50122;56.330;43.838;2022-12-05T21:53:41;103126.34;;;-13.54;79.95
63946;BME280;50122;56.330;43.838;2022-12-05T21:56:10;103136.84;;;-13.51;79.77
63946;BME280;50122;56.330;43.838;2022-12-05T21:58:38;103134.28;;;-13.51;79.49
63946;BME280;50122;56.330;43.838;2022-12-05T22:01:09;103124.84;;;-13.52;79.97
63946;BME280;50122;56.330;43.838;2022-12-05T22:03:36;103120.97;;;-13.48;80.41
63946;BME280;50122;56.330;43.838;2022-12-05T22:06:08;103125.63;;;-13.44;80.06
63946;BME280;50122;56.330;43.838;2022-12-05T22:08:37;103129.22;;;-13.42;80.52
63946;BME280;50122;56.330;43.838;2022-12-05T22:13:30;103114.88;;;-13.41;79.69
63946;BME280;50122;56.330;43.838;2022-12-05T22:15:58;103108.72;;;-13.43;80.02
63946;BME280;50122;56.330;43.838;2022-12-05T22:18:26;103112.28;;;-13.33;79.92
63946;BME280;50122;56.330;43.838;2022-12-05T22:20:55;103112.00;;;-13.27;80.18
63946;BME280;50122;56.330;43.838;2022-12-05T22:23:23;103099.72;;;-13.22;80.13
63946;BME280;50122;56.330;43.838;2022-12-05T22:26:10;103089.84;;;-13.19;79.83
63946;BME280;50122;56.330;43.838;2022-12-05T22:28:40;103089.97;;;-13.18;79.68
63946;BME280;50122;56.330;43.838;2022-12-05T22:31:09;103084.28;;;-13.15;80.12
63946;BME280;50122;56.330;43.838;2022-12-05T22:33:36;103084.00;;;-13.10;79.79
63946;BME280;50122;56.330;43.838;2022-12-05T22:36:08;103082.47;;;-13.07;79.84
63946;BME280;50122;56.330;43.838;2022-12-05T22:38:37;103088.66;;;-13.05;79.45
63946;BME280;50122;56.330;43.838;2022-12-05T22:41:07;103074.84;;;-13.07;79.27
63946;BME280;50122;56.330;43.838;2022-12-05T22:43:36;103078.91;;;-13.10;79.32
63946;BME280;50122;56.330;43.838;2022-12-05T22:46:11;103070.19;;;-13.12;78.98
63946;BME280;50122;56.330;43.838;2022-12-05T22:48:38;103068.72;;;-13.10;78.80
63946;BME280;50122;56.330;43.838;2022-12-05T22:51:06;103071.72;;;-13.14;78.88
63946;BME280;50122;56.330;43.838;2022-12-05T22:53:34;103067.22;;;-13.16;78.79
63946;BME280;50122;56.330;43.838;2022-12-05T22:56:12;103072.00;;;-13.11;79.14
63946;BME280;50122;56.330;43.838;2022-12-05T22:58:40;103073.81;;;-13.10;78.98
63946;BME280;50122;56.330;43.838;2022-12-05T23:01:19;103071.56;;;-13.06;79.41
63946;BME280;50122;56.330;43.838;2022-12-05T23:03:47;103069.91;;;-13.06;79.02
63946;BME280;50122;56.330;43.838;2022-12-05T23:06:16;103070.97;;;-13.04;79.18
63946;BME280;50122;56.330;43.838;2022-12-05T23:08:45;103065.88;;;-13.04;79.20
63946;BME280;50122;56.330;43.838;2022-12-05T23:11:13;103064.97;;;-13.04;78.72
63946;BME280;50122;56.330;43.838;2022-12-05T23:13:42;103066.75;;;-13.03;79.12
63946;BME280;50122;56.330;43.838;2022-12-05T23:16:13;103061.22;;;-12.99;78.82
63946;BME280;50122;56.330;43.838;2022-12-05T23:18:42;103059.13;;;-13.03;79.12
63946;BME280;50122;56.330;43.838;2022-12-05T23:21:19;103059.41;;;-13.00;78.97
63946;BME280;50122;56.330;43.838;2022-12-05T23:23:47;103058.53;;;-13.01;78.99
63946;BME280;50122;56.330;43.838;2022-12-05T23:26:16;103064.66;;;-12.99;79.60
63946;BME280;50122;56.330;43.838;2022-12-05T23:28:43;103058.09;;;-12.97;79.83
63946;BME280;50122;56.330;43.838;2022-12-05T23:31:13;103058.63;;;-12.82;80.21
63946;BME280;50122;56.330;43.838;2022-12-05T23:33:40;103044.72;;;-12.77;79.80
63946;BME280;50122;56.330;43.838;2022-12-05T23:36:07;103044.53;;;-12.69;79.72
63946;BME280;50122;56.330;43.838;2022-12-05T23:38:39;103043.88;;;-12.58;79.83
63946;BME280;50122;56.330;43.838;2022-12-05T23:43:35;103034.38;;;-12.42;79.74
63946;BME280;50122;56.330;43.838;2022-12-05T23:46:03;103025.81;;;-12.42;79.31
63946;BME280;50122;56.330;43.838;2022-12-05T23:48:30;103042.88;;;-12.32;79.29
63946;BME280;50122;56.330;43.838;2022-12-05T23:51:10;103037.31;;;-12.28;78.83
63946;BME280;50122;56.330;43.838;2022-12-05T23:53:39;103032.69;;;-12.32;79.17
63946;BME280;50122;56.330;43.838;2022-12-05T23:56:11;103033.44;;;-12.33;78.68
63946;BME280;50122;56.330;43.838;2022-12-05T23:58:38;103021.28;;;-12.27;78.58
